sensor_id;sensor_type;location;lat;lon;timestamp;temperature;humidity
4856;DHT22;2442;48.676;7.986;2023-08-06T00:01:03;14.60;99.90
4856;DHT22;2442;48.676;7.986;2023-08-06T00:03:30;14.60;99.90
4856;DHT22;2442;48.676;7.986;2023-08-06T00:05:57;14.50;99.90
4856;DHT22;2442;48.676;7.986;2023-08-06T00:08:24;14.50;99.90
4856;DHT22;2442;48.676;7.986;2023-08-06T00:10:52;14.50;99.90
4856;DHT22;2442;48.676;7.986;2023-08-06T00:13:19;14.50;99.90
4856;DHT22;2442;48.676;7.986;2023-08-06T00:15:46;14.50;99.90
4856;DHT22;2442;48.676;7.986;2023-08-06T00:18:13;14.60;99.90
4856;DHT22;2442;48.676;7.986;2023-08-06T00:20:40;14.60;99.90
4856;DHT22;2442;48.676;7.986;2023-08-06T00:23:08;14.50;99.90
4856;DHT22;2442;48.676;7.986;2023-08-06T00:25:35;14.60;99.90
4856;DHT22;2442;48.676;7.986;2023-08-06T00:28:03;14.60;99.90
4856;DHT22;2442;48.676;7.986;2023-08-06T00:30:31;14.70;99.90
4856;DHT22;2442;48.676;7.986;2023-08-06T00:32:58;14.60;99.90
4856;DHT22;2442;48.676;7.986;2023-08-06T00:35:25;14.60;99.90
4856;DHT22;2442;48.676;7.986;2023-08-06T00:37:52;14.60;99.90
4856;DHT22;2442;48.676;7.986;2023-08-06T00:40:20;14.60;99.90
4856;DHT22;2442;48.676;7.986;2023-08-06T00:42:48;14.60;99.90
4856;DHT22;2442;48.676;7.986;2023-08-06T00:45:16;14.60;99.90
4856;DHT22;2442;48.676;7.986;2023-08-06T00:47:43;14.60;99.90
4856;DHT22;2442;48.676;7.986;2023-08-06T00:50:11;14.60;99.90
4856;DHT22;2442;48.676;7.986;2023-08-06T00:52:39;14.50;99.90
4856;DHT22;2442;48.676;7.986;2023-08-06T00:55:06;14.50;99.90
4856;DHT22;2442;48.676;7.986;2023-08-06T00:57:34;14.60;99.90
4856;DHT22;2442;48.676;7.986;2023-08-06T01:00:02;14.70;99.90
4856;DHT22;2442;48.676;7.986;2023-08-06T01:02:31;14.70;99.90
4856;DHT22;2442;48.676;7.986;2023-08-06T01:04:58;14.80;99.90
4856;DHT22;2442;48.676;7.986;2023-08-06T01:07:35;14.90;99.90
4856;DHT22;2442;48.676;7.986;2023-08-06T01:10:23;15.00;99.90
4856;DHT22;2442;48.676;7.986;2023-08-06T01:13:03;15.10;99.90
4856;DHT22;2442;48.676;7.986;2023-08-06T01:15:43;15.10;99.90
4856;DHT22;2442;48.676;7.986;2023-08-06T01:18:14;15.10;99.90
4856;DHT22;2442;48.676;7.986;2023-08-06T01:20:43;15.20;99.90
4856;DHT22;2442;48.676;7.986;2023-08-06T01:23:10;15.30;99.90
4856;DHT22;2442;48.676;7.986;2023-08-06T01:25:52;15.30;99.90
4856;DHT22;2442;48.676;7.986;2023-08-06T01:28:27;15.30;99.90
4856;DHT22;2442;48.676;7.986;2023-08-06T01:31:02;15.40;99.90
4856;DHT22;2442;48.676;7.986;2023-08-06T01:33:32;15.40;99.90
4856;DHT22;2442;48.676;7.986;2023-08-06T01:36:02;15.40;99.90
4856;DHT22;2442;48.676;7.986;2023-08-06T01:38:30;15.40;99.90
4856;DHT22;2442;48.676;7.986;2023-08-06T01:40:57;15.40;99.90
4856;DHT22;2442;48.676;7.986;2023-08-06T01:43:24;15.40;99.90
4856;DHT22;2442;48.676;7.986;2023-08-06T01:45:51;15.30;99.90
4856;DHT22;2442;48.676;7.986;2023-08-06T01:48:18;15.20;99.90
4856;DHT22;2442;48.676;7.986;2023-08-06T01:50:45;15.20;99.90
4856;DHT22;2442;48.676;7.986;2023-08-06T01:53:14;15.10;99.90
4856;DHT22;2442;48.676;7.986;2023-08-06T01:55:41;15.00;99.90
4856;DHT22;2442;48.676;7.986;2023-08-06T01:58:08;15.00;99.90
4856;DHT22;2442;48.676;7.986;2023-08-06T02:00:35;14.90;99.90
4856;DHT22;2442;48.676;7.986;2023-08-06T02:03:01;14.90;99.90
4856;DHT22;2442;48.676;7.986;2023-08-06T02:05:29;14.90;99.90
4856;DHT22;2442;48.676;7.986;2023-08-06T02:07:56;14.80;99.90
4856;DHT22;2442;48.676;7.986;2023-08-06T02:10:24;14.80;99.90
4856;DHT22;2442;48.676;7.986;2023-08-06T02:12:51;14.70;99.90
4856;DHT22;2442;48.676;7.986;2023-08-06T02:15:18;14.70;99.90
4856;DHT22;2442;48.676;7.986;2023-08-06T02:17:46;14.60;99.90
4856;DHT22;2442;48.676;7.986;2023-08-06T02:20:13;14.60;99.90
4856;DHT22;2442;48.676;7.986;2023-08-06T02:22:40;14.50;99.90
4856;DHT22;2442;48.676;7.986;2023-08-06T02:25:07;14.50;99.90
4856;DHT22;2442;48.676;7.986;2023-08-06T02:27:37;14.40;99.90
4856;DHT22;2442;48.676;7.986;2023-08-06T02:30:05;14.40;99.90
4856;DHT22;2442;48.676;7.986;2023-08-06T02:32:33;14.40;99.90
4856;DHT22;2442;48.676;7.986;2023-08-06T02:35:09;14.50;99.90
4856;DHT22;2442;48.676;7.986;2023-08-06T02:37:56;14.30;99.90
4856;DHT22;2442;48.676;7.986;2023-08-06T02:40:43;14.30;99.90
4856;DHT22;2442;48.676;7.986;2023-08-06T02:43:22;14.10;99.90
4856;DHT22;2442;48.676;7.986;2023-08-06T02:46:09;14.00;99.90
4856;DHT22;2442;48.676;7.986;2023-08-06T02:48:35;13.90;99.90
4856;DHT22;2442;48.676;7.986;2023-08-06T02:51:02;13.90;99.90
4856;DHT22;2442;48.676;7.986;2023-08-06T02:53:29;13.80;99.90
4856;DHT22;2442;48.676;7.986;2023-08-06T02:55:56;13.80;99.90
4856;DHT22;2442;48.676;7.986;2023-08-06T02:58:25;13.80;99.90
4856;DHT22;2442;48.676;7.986;2023-08-06T03:00:58;13.80;99.90
4856;DHT22;2442;48.676;7.986;2023-08-06T03:03:26;13.80;99.90
4856;DHT22;2442;48.676;7.986;2023-08-06T03:05:53;13.80;99.90
4856;DHT22;2442;48.676;7.986;2023-08-06T03:08:20;13.80;99.90
4856;DHT22;2442;48.676;7.986;2023-08-06T03:10:48;13.80;99.90
4856;DHT22;2442;48.676;7.986;2023-08-06T03:13:15;13.80;99.90
4856;DHT22;2442;48.676;7.986;2023-08-06T03:15:43;13.90;99.90
4856;DHT22;2442;48.676;7.986;2023-08-06T03:18:10;13.90;99.90
4856;DHT22;2442;48.676;7.986;2023-08-06T03:20:37;13.90;99.90
4856;DHT22;2442;48.676;7.986;2023-08-06T03:23:03;13.90;99.90
4856;DHT22;2442;48.676;7.986;2023-08-06T03:25:30;13.90;99.90
4856;DHT22;2442;48.676;7.986;2023-08-06T03:27:57;13.90;99.90
4856;DHT22;2442;48.676;7.986;2023-08-06T03:30:24;13.90;99.90
4856;DHT22;2442;48.676;7.986;2023-08-06T03:32:52;13.90;99.90
4856;DHT22;2442;48.676;7.986;2023-08-06T03:35:19;13.90;99.90
4856;DHT22;2442;48.676;7.986;2023-08-06T03:37:46;13.90;99.90
4856;DHT22;2442;48.676;7.986;2023-08-06T03:40:13;13.90;99.90
4856;DHT22;2442;48.676;7.986;2023-08-06T03:42:40;13.90;99.90
4856;DHT22;2442;48.676;7.986;2023-08-06T03:45:07;14.00;99.90
4856;DHT22;2442;48.676;7.986;2023-08-06T03:47:35;14.10;99.90
4856;DHT22;2442;48.676;7.986;2023-08-06T03:50:03;14.10;99.90
4856;DHT22;2442;48.676;7.986;2023-08-06T03:52:31;14.10;99.90
4856;DHT22;2442;48.676;7.986;2023-08-06T03:54:58;14.20;99.90
4856;DHT22;2442;48.676;7.986;2023-08-06T03:57:24;14.20;99.90
4856;DHT22;2442;48.676;7.986;2023-08-06T03:59:51;14.30;99.90
4856;DHT22;2442;48.676;7.986;2023-08-06T04:02:18;14.30;99.90
4856;DHT22;2442;48.676;7.986;2023-08-06T04:04:45;14.40;99.90
4856;DHT22;2442;48.676;7.986;2023-08-06T04:07:13;14.40;99.90
4856;DHT22;2442;48.676;7.986;2023-08-06T04:09:51;14.40;99.90
4856;DHT22;2442;48.676;7.986;2023-08-06T04:12:19;14.30;99.90
4856;DHT22;2442;48.676;7.986;2023-08-06T04:14:46;14.30;99.90
4856;DHT22;2442;48.676;7.986;2023-08-06T04:17:13;14.20;99.90
4856;DHT22;2442;48.676;7.986;2023-08-06T04:19:40;14.20;99.90
4856;DHT22;2442;48.676;7.986;2023-08-06T04:22:06;14.10;99.90
4856;DHT22;2442;48.676;7.986;2023-08-06T04:24:35;14.10;99.90
4856;DHT22;2442;48.676;7.986;2023-08-06T04:27:01;14.10;99.90
4856;DHT22;2442;48.676;7.986;2023-08-06T04:29:28;14.00;99.90
4856;DHT22;2442;48.676;7.986;2023-08-06T04:31:55;14.00;99.90
4856;DHT22;2442;48.676;7.986;2023-08-06T04:34:22;14.00;99.90
4856;DHT22;2442;48.676;7.986;2023-08-06T04:36:49;14.00;99.90
4856;DHT22;2442;48.676;7.986;2023-08-06T04:39:16;13.90;99.90
4856;DHT22;2442;48.676;7.986;2023-08-06T04:41:44;13.90;99.90
4856;DHT22;2442;48.676;7.986;2023-08-06T04:44:11;13.90;99.90
4856;DHT22;2442;48.676;7.986;2023-08-06T04:46:37;13.90;99.90
4856;DHT22;2442;48.676;7.986;2023-08-06T04:49:04;13.90;99.90
4856;DHT22;2442;48.676;7.986;2023-08-06T04:51:31;13.90;99.90
4856;DHT22;2442;48.676;7.986;2023-08-06T04:53:58;13.80;99.90
4856;DHT22;2442;48.676;7.986;2023-08-06T04:56:25;13.80;99.90
4856;DHT22;2442;48.676;7.986;2023-08-06T04:58:53;13.80;99.90
4856;DHT22;2442;48.676;7.986;2023-08-06T05:01:20;13.80;99.90
4856;DHT22;2442;48.676;7.986;2023-08-06T05:03:47;13.70;99.90
4856;DHT22;2442;48.676;7.986;2023-08-06T05:06:14;13.70;99.90
4856;DHT22;2442;48.676;7.986;2023-08-06T05:08:40;13.70;99.90
4856;DHT22;2442;48.676;7.986;2023-08-06T05:11:07;13.60;99.90
4856;DHT22;2442;48.676;7.986;2023-08-06T05:13:35;13.60;99.90
4856;DHT22;2442;48.676;7.986;2023-08-06T05:16:04;13.50;99.90
4856;DHT22;2442;48.676;7.986;2023-08-06T05:18:30;13.50;99.90
4856;DHT22;2442;48.676;7.986;2023-08-06T05:20:59;13.50;99.90
4856;DHT22;2442;48.676;7.986;2023-08-06T05:23:26;13.50;99.90
4856;DHT22;2442;48.676;7.986;2023-08-06T05:25:53;13.50;99.90
4856;DHT22;2442;48.676;7.986;2023-08-06T05:28:20;13.50;99.90
4856;DHT22;2442;48.676;7.986;2023-08-06T05:30:47;13.50;99.90
4856;DHT22;2442;48.676;7.986;2023-08-06T05:33:15;13.50;99.90
4856;DHT22;2442;48.676;7.986;2023-08-06T05:35:42;13.50;99.90
4856;DHT22;2442;48.676;7.986;2023-08-06T05:38:09;13.50;99.90
4856;DHT22;2442;48.676;7.986;2023-08-06T05:40:35;13.40;99.90
4856;DHT22;2442;48.676;7.986;2023-08-06T05:43:02;13.40;99.90
4856;DHT22;2442;48.676;7.986;2023-08-06T05:45:29;13.50;99.90
4856;DHT22;2442;48.676;7.986;2023-08-06T05:47:56;13.50;99.90
4856;DHT22;2442;48.676;7.986;2023-08-06T05:50:25;13.50;99.90
4856;DHT22;2442;48.676;7.986;2023-08-06T05:52:52;13.50;99.90
4856;DHT22;2442;48.676;7.986;2023-08-06T05:55:19;13.50;99.90
4856;DHT22;2442;48.676;7.986;2023-08-06T05:57:46;13.50;99.90
4856;DHT22;2442;48.676;7.986;2023-08-06T06:00:13;13.50;99.90
4856;DHT22;2442;48.676;7.986;2023-08-06T06:02:40;13.50;99.90
4856;DHT22;2442;48.676;7.986;2023-08-06T06:05:07;13.50;99.90
4856;DHT22;2442;48.676;7.986;2023-08-06T06:07:36;13.50;99.90
4856;DHT22;2442;48.676;7.986;2023-08-06T06:10:03;13.50;99.90
4856;DHT22;2442;48.676;7.986;2023-08-06T06:12:30;13.50;99.90
4856;DHT22;2442;48.676;7.986;2023-08-06T06:14:57;13.60;99.90
4856;DHT22;2442;48.676;7.986;2023-08-06T06:17:26;13.60;99.90
4856;DHT22;2442;48.676;7.986;2023-08-06T06:19:53;13.60;99.90
4856;DHT22;2442;48.676;7.986;2023-08-06T06:22:18;13.60;99.90
4856;DHT22;2442;48.676;7.986;2023-08-06T06:24:47;13.60;99.90
4856;DHT22;2442;48.676;7.986;2023-08-06T06:27:14;13.70;99.90
4856;DHT22;2442;48.676;7.986;2023-08-06T06:29:41;13.70;99.90
4856;DHT22;2442;48.676;7.986;2023-08-06T06:32:07;13.70;99.90
4856;DHT22;2442;48.676;7.986;2023-08-06T06:34:34;13.70;99.90
4856;DHT22;2442;48.676;7.986;2023-08-06T06:37:01;13.70;99.90
4856;DHT22;2442;48.676;7.986;2023-08-06T06:39:28;13.60;99.90
4856;DHT22;2442;48.676;7.986;2023-08-06T06:41:56;13.70;99.90
4856;DHT22;2442;48.676;7.986;2023-08-06T06:44:23;13.60;99.90
4856;DHT22;2442;48.676;7.986;2023-08-06T06:46:50;13.60;99.90
4856;DHT22;2442;48.676;7.986;2023-08-06T06:49:17;13.60;99.90
4856;DHT22;2442;48.676;7.986;2023-08-06T06:51:44;13.70;99.90
4856;DHT22;2442;48.676;7.986;2023-08-06T06:54:10;13.60;99.90
4856;DHT22;2442;48.676;7.986;2023-08-06T06:56:37;13.60;99.90
4856;DHT22;2442;48.676;7.986;2023-08-06T06:59:06;13.60;99.90
4856;DHT22;2442;48.676;7.986;2023-08-06T07:01:33;13.60;99.90
4856;DHT22;2442;48.676;7.986;2023-08-06T07:03:59;13.60;99.90
4856;DHT22;2442;48.676;7.986;2023-08-06T07:06:30;13.70;99.90
4856;DHT22;2442;48.676;7.986;2023-08-06T07:08:56;13.70;99.90
4856;DHT22;2442;48.676;7.986;2023-08-06T07:11:23;13.70;99.90
4856;DHT22;2442;48.676;7.986;2023-08-06T07:13:55;13.60;99.90
4856;DHT22;2442;48.676;7.986;2023-08-06T07:16:24;13.60;99.90
4856;DHT22;2442;48.676;7.986;2023-08-06T07:18:51;13.60;99.90
4856;DHT22;2442;48.676;7.986;2023-08-06T07:21:18;13.50;99.90
4856;DHT22;2442;48.676;7.986;2023-08-06T07:23:45;13.50;99.90
4856;DHT22;2442;48.676;7.986;2023-08-06T07:26:14;13.50;99.90
4856;DHT22;2442;48.676;7.986;2023-08-06T07:28:41;13.50;99.90
4856;DHT22;2442;48.676;7.986;2023-08-06T07:31:08;13.50;99.90
4856;DHT22;2442;48.676;7.986;2023-08-06T07:33:36;13.50;99.90
4856;DHT22;2442;48.676;7.986;2023-08-06T07:36:10;13.50;99.90
4856;DHT22;2442;48.676;7.986;2023-08-06T07:38:38;13.50;99.90
4856;DHT22;2442;48.676;7.986;2023-08-06T07:41:05;13.50;99.90
4856;DHT22;2442;48.676;7.986;2023-08-06T07:43:31;13.50;99.90
4856;DHT22;2442;48.676;7.986;2023-08-06T07:45:58;13.50;99.90
4856;DHT22;2442;48.676;7.986;2023-08-06T07:48:26;13.50;99.90
4856;DHT22;2442;48.676;7.986;2023-08-06T07:50:55;13.50;99.90
4856;DHT22;2442;48.676;7.986;2023-08-06T07:53:22;13.50;99.90
4856;DHT22;2442;48.676;7.986;2023-08-06T07:55:49;13.60;99.90
4856;DHT22;2442;48.676;7.986;2023-08-06T07:58:17;13.60;99.90
4856;DHT22;2442;48.676;7.986;2023-08-06T08:00:44;13.70;99.90
4856;DHT22;2442;48.676;7.986;2023-08-06T08:03:11;13.70;99.90
4856;DHT22;2442;48.676;7.986;2023-08-06T08:05:38;13.70;99.90
4856;DHT22;2442;48.676;7.986;2023-08-06T08:08:07;13.80;99.90
4856;DHT22;2442;48.676;7.986;2023-08-06T08:10:34;13.80;99.90
4856;DHT22;2442;48.676;7.986;2023-08-06T08:13:01;13.80;99.90
4856;DHT22;2442;48.676;7.986;2023-08-06T08:15:28;13.70;99.90
4856;DHT22;2442;48.676;7.986;2023-08-06T08:17:55;13.70;99.90
4856;DHT22;2442;48.676;7.986;2023-08-06T08:20:22;13.80;99.90
4856;DHT22;2442;48.676;7.986;2023-08-06T08:22:49;13.80;99.90
4856;DHT22;2442;48.676;7.986;2023-08-06T08:25:17;13.80;99.90
4856;DHT22;2442;48.676;7.986;2023-08-06T08:27:44;13.70;99.90
4856;DHT22;2442;48.676;7.986;2023-08-06T08:30:11;13.70;99.90
4856;DHT22;2442;48.676;7.986;2023-08-06T08:32:38;13.80;99.90
4856;DHT22;2442;48.676;7.986;2023-08-06T08:35:05;13.80;99.90
4856;DHT22;2442;48.676;7.986;2023-08-06T08:37:32;13.80;99.90
4856;DHT22;2442;48.676;7.986;2023-08-06T08:39:59;13.80;99.90
4856;DHT22;2442;48.676;7.986;2023-08-06T08:42:27;13.80;99.90
4856;DHT22;2442;48.676;7.986;2023-08-06T08:44:54;13.80;99.90
4856;DHT22;2442;48.676;7.986;2023-08-06T08:47:22;13.80;99.90
4856;DHT22;2442;48.676;7.986;2023-08-06T08:49:49;13.80;99.90
4856;DHT22;2442;48.676;7.986;2023-08-06T08:52:18;13.80;99.90
4856;DHT22;2442;48.676;7.986;2023-08-06T08:54:46;13.70;99.90
4856;DHT22;2442;48.676;7.986;2023-08-06T08:57:16;13.80;99.90
4856;DHT22;2442;48.676;7.986;2023-08-06T08:59:45;13.80;99.90
4856;DHT22;2442;48.676;7.986;2023-08-06T09:02:12;13.80;99.90
4856;DHT22;2442;48.676;7.986;2023-08-06T09:04:39;13.80;99.90
4856;DHT22;2442;48.676;7.986;2023-08-06T09:07:07;13.80;99.90
4856;DHT22;2442;48.676;7.986;2023-08-06T09:09:34;13.80;99.90
4856;DHT22;2442;48.676;7.986;2023-08-06T09:12:05;13.80;99.90
4856;DHT22;2442;48.676;7.986;2023-08-06T09:14:37;13.70;99.90
4856;DHT22;2442;48.676;7.986;2023-08-06T09:17:06;13.80;99.90
4856;DHT22;2442;48.676;7.986;2023-08-06T09:19:33;13.70;99.90
4856;DHT22;2442;48.676;7.986;2023-08-06T09:22:00;13.80;99.90
4856;DHT22;2442;48.676;7.986;2023-08-06T09:24:26;13.90;99.90
4856;DHT22;2442;48.676;7.986;2023-08-06T09:26:53;13.90;99.90
4856;DHT22;2442;48.676;7.986;2023-08-06T09:29:20;14.00;99.90
4856;DHT22;2442;48.676;7.986;2023-08-06T09:31:48;14.10;99.90
4856;DHT22;2442;48.676;7.986;2023-08-06T09:34:18;14.10;99.90
4856;DHT22;2442;48.676;7.986;2023-08-06T09:36:48;14.00;99.90
4856;DHT22;2442;48.676;7.986;2023-08-06T09:39:16;14.00;99.90
4856;DHT22;2442;48.676;7.986;2023-08-06T09:41:45;13.90;99.90
4856;DHT22;2442;48.676;7.986;2023-08-06T09:44:15;14.00;99.90
4856;DHT22;2442;48.676;7.986;2023-08-06T09:46:43;14.00;99.90
4856;DHT22;2442;48.676;7.986;2023-08-06T09:49:13;14.00;99.90
4856;DHT22;2442;48.676;7.986;2023-08-06T09:51:42;14.00;99.90
4856;DHT22;2442;48.676;7.986;2023-08-06T09:54:10;14.00;99.90
4856;DHT22;2442;48.676;7.986;2023-08-06T09:56:39;14.00;99.90
4856;DHT22;2442;48.676;7.986;2023-08-06T09:59:06;14.00;99.90
4856;DHT22;2442;48.676;7.986;2023-08-06T10:01:33;14.20;99.90
4856;DHT22;2442;48.676;7.986;2023-08-06T10:04:02;13.90;99.90
4856;DHT22;2442;48.676;7.986;2023-08-06T10:06:31;13.90;99.90
4856;DHT22;2442;48.676;7.986;2023-08-06T10:09:01;13.90;99.90
4856;DHT22;2442;48.676;7.986;2023-08-06T10:11:28;14.10;99.90
4856;DHT22;2442;48.676;7.986;2023-08-06T10:13:57;14.10;99.90
4856;DHT22;2442;48.676;7.986;2023-08-06T10:16:28;14.10;99.90
4856;DHT22;2442;48.676;7.986;2023-08-06T10:18:55;14.10;99.90
4856;DHT22;2442;48.676;7.986;2023-08-06T10:21:23;14.20;99.90
4856;DHT22;2442;48.676;7.986;2023-08-06T10:23:53;14.30;99.90
4856;DHT22;2442;48.676;7.986;2023-08-06T10:26:25;14.20;99.90
4856;DHT22;2442;48.676;7.986;2023-08-06T10:28:53;14.20;99.90
4856;DHT22;2442;48.676;7.986;2023-08-06T10:31:20;14.20;99.90
4856;DHT22;2442;48.676;7.986;2023-08-06T10:34:19;14.10;99.90
4856;DHT22;2442;48.676;7.986;2023-08-06T10:36:46;14.10;99.90
4856;DHT22;2442;48.676;7.986;2023-08-06T10:39:13;14.10;99.90
4856;DHT22;2442;48.676;7.986;2023-08-06T10:41:43;14.10;99.90
4856;DHT22;2442;48.676;7.986;2023-08-06T10:44:10;14.10;99.90
4856;DHT22;2442;48.676;7.986;2023-08-06T10:46:37;14.00;99.90
4856;DHT22;2442;48.676;7.986;2023-08-06T10:49:04;14.00;99.90
4856;DHT22;2442;48.676;7.986;2023-08-06T10:51:32;14.00;99.90
4856;DHT22;2442;48.676;7.986;2023-08-06T10:53:59;14.00;99.90
4856;DHT22;2442;48.676;7.986;2023-08-06T10:56:26;14.00;99.90
4856;DHT22;2442;48.676;7.986;2023-08-06T10:58:54;14.10;99.90
4856;DHT22;2442;48.676;7.986;2023-08-06T11:01:22;14.00;99.90
4856;DHT22;2442;48.676;7.986;2023-08-06T11:03:50;14.20;99.90
4856;DHT22;2442;48.676;7.986;2023-08-06T11:06:19;14.30;99.90
4856;DHT22;2442;48.676;7.986;2023-08-06T11:08:49;14.40;99.90
4856;DHT22;2442;48.676;7.986;2023-08-06T11:11:17;14.40;99.90
4856;DHT22;2442;48.676;7.986;2023-08-06T11:13:44;14.60;99.90
4856;DHT22;2442;48.676;7.986;2023-08-06T11:16:13;14.60;99.90
4856;DHT22;2442;48.676;7.986;2023-08-06T11:18:42;14.40;99.90
4856;DHT22;2442;48.676;7.986;2023-08-06T11:21:09;14.50;99.90
4856;DHT22;2442;48.676;7.986;2023-08-06T11:23:37;14.80;99.90
4856;DHT22;2442;48.676;7.986;2023-08-06T11:26:04;14.60;99.90
4856;DHT22;2442;48.676;7.986;2023-08-06T11:28:31;14.60;99.90
4856;DHT22;2442;48.676;7.986;2023-08-06T11:30:58;14.70;99.90
4856;DHT22;2442;48.676;7.986;2023-08-06T11:33:29;14.70;99.90
4856;DHT22;2442;48.676;7.986;2023-08-06T11:35:57;14.80;99.90
4856;DHT22;2442;48.676;7.986;2023-08-06T11:38:25;14.80;99.90
4856;DHT22;2442;48.676;7.986;2023-08-06T11:40:52;14.90;99.90
4856;DHT22;2442;48.676;7.986;2023-08-06T11:43:19;14.90;99.90
4856;DHT22;2442;48.676;7.986;2023-08-06T11:45:48;15.10;99.90
4856;DHT22;2442;48.676;7.986;2023-08-06T11:48:16;14.90;99.90
4856;DHT22;2442;48.676;7.986;2023-08-06T11:50:45;15.00;99.90
4856;DHT22;2442;48.676;7.986;2023-08-06T11:53:12;14.90;99.90
4856;DHT22;2442;48.676;7.986;2023-08-06T11:55:40;15.00;99.90
4856;DHT22;2442;48.676;7.986;2023-08-06T11:58:08;15.00;99.90
4856;DHT22;2442;48.676;7.986;2023-08-06T12:00:36;15.20;99.90
4856;DHT22;2442;48.676;7.986;2023-08-06T12:03:05;15.20;99.90
4856;DHT22;2442;48.676;7.986;2023-08-06T12:05:32;15.20;99.90
4856;DHT22;2442;48.676;7.986;2023-08-06T12:08:01;15.40;99.90
4856;DHT22;2442;48.676;7.986;2023-08-06T12:10:29;15.50;99.90
4856;DHT22;2442;48.676;7.986;2023-08-06T12:12:56;15.50;99.90
4856;DHT22;2442;48.676;7.986;2023-08-06T12:15:23;15.50;99.90
4856;DHT22;2442;48.676;7.986;2023-08-06T12:17:50;15.60;99.90
4856;DHT22;2442;48.676;7.986;2023-08-06T12:20:17;15.50;99.90
4856;DHT22;2442;48.676;7.986;2023-08-06T12:22:44;15.60;99.90
4856;DHT22;2442;48.676;7.986;2023-08-06T12:25:13;15.60;99.90
4856;DHT22;2442;48.676;7.986;2023-08-06T12:27:40;15.60;99.90
4856;DHT22;2442;48.676;7.986;2023-08-06T12:30:09;15.50;99.90
4856;DHT22;2442;48.676;7.986;2023-08-06T12:32:36;15.70;99.90
4856;DHT22;2442;48.676;7.986;2023-08-06T12:35:03;15.70;99.90
4856;DHT22;2442;48.676;7.986;2023-08-06T12:37:32;15.90;99.90
4856;DHT22;2442;48.676;7.986;2023-08-06T12:39:59;15.70;99.90
4856;DHT22;2442;48.676;7.986;2023-08-06T12:42:27;15.70;99.90
4856;DHT22;2442;48.676;7.986;2023-08-06T12:44:54;15.80;99.90
4856;DHT22;2442;48.676;7.986;2023-08-06T12:47:21;15.90;99.90
4856;DHT22;2442;48.676;7.986;2023-08-06T12:52:15;16.30;99.90
4856;DHT22;2442;48.676;7.986;2023-08-06T12:54:45;16.30;99.90
4856;DHT22;2442;48.676;7.986;2023-08-06T12:57:12;16.70;99.90
4856;DHT22;2442;48.676;7.986;2023-08-06T12:59:40;16.80;99.90
4856;DHT22;2442;48.676;7.986;2023-08-06T13:02:07;16.70;99.90
4856;DHT22;2442;48.676;7.986;2023-08-06T13:04:34;16.50;99.90
4856;DHT22;2442;48.676;7.986;2023-08-06T13:07:01;16.70;99.90
4856;DHT22;2442;48.676;7.986;2023-08-06T13:09:28;16.30;99.90
4856;DHT22;2442;48.676;7.986;2023-08-06T13:11:56;16.50;99.90
4856;DHT22;2442;48.676;7.986;2023-08-06T13:14:23;16.50;99.90
4856;DHT22;2442;48.676;7.986;2023-08-06T13:16:51;16.60;99.90
4856;DHT22;2442;48.676;7.986;2023-08-06T13:19:18;16.70;99.90
4856;DHT22;2442;48.676;7.986;2023-08-06T13:21:58;16.70;99.90
4856;DHT22;2442;48.676;7.986;2023-08-06T13:24:26;16.60;99.90
4856;DHT22;2442;48.676;7.986;2023-08-06T13:26:53;16.30;99.90
4856;DHT22;2442;48.676;7.986;2023-08-06T13:29:20;16.40;99.90
4856;DHT22;2442;48.676;7.986;2023-08-06T13:31:47;16.40;99.90
4856;DHT22;2442;48.676;7.986;2023-08-06T13:34:15;16.40;99.90
4856;DHT22;2442;48.676;7.986;2023-08-06T13:36:42;16.80;99.90
4856;DHT22;2442;48.676;7.986;2023-08-06T13:39:08;17.20;99.90
4856;DHT22;2442;48.676;7.986;2023-08-06T13:41:36;17.30;99.90
4856;DHT22;2442;48.676;7.986;2023-08-06T13:44:04;17.10;99.90
4856;DHT22;2442;48.676;7.986;2023-08-06T13:46:30;16.70;99.90
4856;DHT22;2442;48.676;7.986;2023-08-06T13:48:57;16.80;99.90
4856;DHT22;2442;48.676;7.986;2023-08-06T13:51:25;17.00;99.90
4856;DHT22;2442;48.676;7.986;2023-08-06T13:53:52;16.80;99.90
4856;DHT22;2442;48.676;7.986;2023-08-06T13:56:19;16.60;99.90
4856;DHT22;2442;48.676;7.986;2023-08-06T13:58:46;16.40;99.90
4856;DHT22;2442;48.676;7.986;2023-08-06T14:01:13;16.30;99.90
4856;DHT22;2442;48.676;7.986;2023-08-06T14:03:43;16.40;99.90
4856;DHT22;2442;48.676;7.986;2023-08-06T14:06:10;16.40;99.90
4856;DHT22;2442;48.676;7.986;2023-08-06T14:08:38;16.60;99.90
4856;DHT22;2442;48.676;7.986;2023-08-06T14:11:05;16.80;99.90
4856;DHT22;2442;48.676;7.986;2023-08-06T14:13:32;16.90;99.90
4856;DHT22;2442;48.676;7.986;2023-08-06T14:15:59;17.30;99.90
4856;DHT22;2442;48.676;7.986;2023-08-06T14:18:26;17.50;99.90
4856;DHT22;2442;48.676;7.986;2023-08-06T14:20:53;17.60;99.90
4856;DHT22;2442;48.676;7.986;2023-08-06T14:23:20;17.80;99.90
4856;DHT22;2442;48.676;7.986;2023-08-06T14:25:48;18.10;99.90
4856;DHT22;2442;48.676;7.986;2023-08-06T14:28:15;18.10;99.90
4856;DHT22;2442;48.676;7.986;2023-08-06T14:30:41;18.00;99.90
4856;DHT22;2442;48.676;7.986;2023-08-06T14:33:08;18.10;99.90
4856;DHT22;2442;48.676;7.986;2023-08-06T14:35:35;18.20;99.90
4856;DHT22;2442;48.676;7.986;2023-08-06T14:38:02;18.10;99.90
4856;DHT22;2442;48.676;7.986;2023-08-06T14:40:29;18.00;99.90
4856;DHT22;2442;48.676;7.986;2023-08-06T14:43:00;17.90;99.90
4856;DHT22;2442;48.676;7.986;2023-08-06T14:45:28;17.80;99.90
4856;DHT22;2442;48.676;7.986;2023-08-06T14:47:54;17.50;99.90
4856;DHT22;2442;48.676;7.986;2023-08-06T14:50:21;17.40;99.90
4856;DHT22;2442;48.676;7.986;2023-08-06T14:52:48;17.20;99.90
4856;DHT22;2442;48.676;7.986;2023-08-06T14:55:17;17.10;99.90
4856;DHT22;2442;48.676;7.986;2023-08-06T14:57:49;16.90;99.90
4856;DHT22;2442;48.676;7.986;2023-08-06T15:00:17;16.80;99.90
4856;DHT22;2442;48.676;7.986;2023-08-06T15:02:44;16.60;99.90
4856;DHT22;2442;48.676;7.986;2023-08-06T15:05:11;16.50;99.90
4856;DHT22;2442;48.676;7.986;2023-08-06T15:07:38;16.50;99.90
4856;DHT22;2442;48.676;7.986;2023-08-06T15:10:05;16.30;99.90
4856;DHT22;2442;48.676;7.986;2023-08-06T15:12:32;16.30;99.90
4856;DHT22;2442;48.676;7.986;2023-08-06T15:14:59;16.50;99.90
4856;DHT22;2442;48.676;7.986;2023-08-06T15:17:28;16.40;99.90
4856;DHT22;2442;48.676;7.986;2023-08-06T15:19:56;16.30;99.90
4856;DHT22;2442;48.676;7.986;2023-08-06T15:22:23;16.40;99.90
4856;DHT22;2442;48.676;7.986;2023-08-06T15:24:50;16.30;99.90
4856;DHT22;2442;48.676;7.986;2023-08-06T15:27:17;16.20;99.90
4856;DHT22;2442;48.676;7.986;2023-08-06T15:29:44;16.30;99.90
4856;DHT22;2442;48.676;7.986;2023-08-06T15:32:11;16.20;99.90
4856;DHT22;2442;48.676;7.986;2023-08-06T15:34:40;16.00;99.90
4856;DHT22;2442;48.676;7.986;2023-08-06T15:37:07;15.90;99.90
4856;DHT22;2442;48.676;7.986;2023-08-06T15:39:34;15.80;99.90
4856;DHT22;2442;48.676;7.986;2023-08-06T15:42:01;15.80;99.90
4856;DHT22;2442;48.676;7.986;2023-08-06T15:44:28;15.70;99.90
4856;DHT22;2442;48.676;7.986;2023-08-06T15:46:55;15.60;99.90
4856;DHT22;2442;48.676;7.986;2023-08-06T15:49:22;15.50;99.90
4856;DHT22;2442;48.676;7.986;2023-08-06T15:51:51;15.60;99.90
4856;DHT22;2442;48.676;7.986;2023-08-06T15:54:18;15.70;99.90
4856;DHT22;2442;48.676;7.986;2023-08-06T15:56:47;15.80;99.90
4856;DHT22;2442;48.676;7.986;2023-08-06T15:59:20;15.90;99.90
4856;DHT22;2442;48.676;7.986;2023-08-06T16:01:48;15.90;99.90
4856;DHT22;2442;48.676;7.986;2023-08-06T16:04:15;15.90;99.90
4856;DHT22;2442;48.676;7.986;2023-08-06T16:06:42;16.10;99.90
4856;DHT22;2442;48.676;7.986;2023-08-06T16:09:11;16.10;99.90